createdAt,value
2023-04-07T00:00:43.457Z,10.50
2023-04-07T00:03:11.724Z,10.50
2023-04-07T00:05:39.057Z,10.50
2023-04-07T00:08:06.808Z,10.50
2023-04-07T00:10:34.161Z,10.60
2023-04-07T00:13:01.546Z,10.60
2023-04-07T00:15:28.834Z,10.60
2023-04-07T00:17:56.535Z,10.60
2023-04-07T00:20:23.877Z,10.60
2023-04-07T00:22:51.125Z,10.60
2023-04-07T00:25:18.413Z,10.60
2023-04-07T00:27:45.674Z,10.60
2023-04-07T00:30:13.214Z,10.60
2023-04-07T00:32:40.482Z,10.60
2023-04-07T00:35:08.237Z,10.60
2023-04-07T00:37:35.514Z,10.60
2023-04-07T00:40:04.274Z,10.60
2023-04-07T00:42:31.556Z,10.60
2023-04-07T00:44:58.843Z,10.60
2023-04-07T00:47:26.447Z,10.60
2023-04-07T00:49:53.767Z,10.60
2023-04-07T00:52:29.109Z,10.70
2023-04-07T00:54:56.485Z,10.70
2023-04-07T00:57:24.068Z,10.70
2023-04-07T00:59:55.351Z,10.70
2023-04-07T01:02:38.558Z,10.60
2023-04-07T01:05:09.778Z,10.70
2023-04-07T01:07:51.468Z,10.70
2023-04-07T01:10:27.301Z,10.70
2023-04-07T01:13:13.427Z,10.70
2023-04-07T01:15:42.507Z,10.70
2023-04-07T01:18:15.684Z,10.70
2023-04-07T01:20:46.350Z,10.70
2023-04-07T01:23:23.570Z,10.70
2023-04-07T01:25:53.652Z,10.70
2023-04-07T01:28:59.615Z,10.70
2023-04-07T01:31:27.739Z,10.70
2023-04-07T01:33:57.821Z,10.70
2023-04-07T01:36:28.480Z,10.70
2023-04-07T01:38:56.470Z,10.70
2023-04-07T01:41:24.768Z,10.70
2023-04-07T01:43:54.308Z,10.70
2023-04-07T01:46:22.131Z,10.70
2023-04-07T01:48:51.392Z,10.70
2023-04-07T01:51:20.175Z,10.70
2023-04-07T01:53:49.139Z,10.70
2023-04-07T01:56:17.025Z,10.70
2023-04-07T01:58:48.666Z,10.70
2023-04-07T02:01:19.040Z,10.70
2023-04-07T02:04:15.863Z,10.70
2023-04-07T02:06:49.467Z,10.70
2023-04-07T02:09:22.870Z,10.70
2023-04-07T02:11:52.642Z,10.70
2023-04-07T02:14:22.825Z,10.70
2023-04-07T02:17:11.430Z,10.70
2023-04-07T02:19:39.309Z,10.70
2023-04-07T02:22:07.632Z,10.70
2023-04-07T02:24:34.909Z,10.70
2023-04-07T02:27:02.432Z,10.70
2023-04-07T02:29:29.813Z,10.70
2023-04-07T02:31:57.066Z,10.70
2023-04-07T02:34:24.395Z,10.70
2023-04-07T02:36:51.877Z,10.70
2023-04-07T02:39:19.239Z,10.70
2023-04-07T02:41:46.547Z,10.70
2023-04-07T02:44:13.784Z,10.70
2023-04-07T02:46:41.583Z,10.70
2023-04-07T02:49:08.872Z,10.70
2023-04-07T02:51:38.190Z,10.70
2023-04-07T02:54:05.669Z,10.70
2023-04-07T02:56:33.496Z,10.70
2023-04-07T02:59:00.903Z,10.70
2023-04-07T03:01:30.168Z,10.70
2023-04-07T03:03:57.940Z,10.60
2023-04-07T03:06:27.294Z,10.70
2023-04-07T03:09:15.668Z,10.70
2023-04-07T03:11:43.101Z,10.60
2023-04-07T03:14:10.851Z,10.60
2023-04-07T03:16:47.403Z,10.60
2023-04-07T03:19:16.660Z,10.60
2023-04-07T03:21:47.386Z,10.60
2023-04-07T03:24:14.701Z,10.60
2023-04-07T03:26:42.160Z,10.60
2023-04-07T03:29:19.323Z,10.60
2023-04-07T03:31:46.854Z,10.60
2023-04-07T03:34:17.134Z,10.60
2023-04-07T03:36:44.506Z,10.60
2023-04-07T03:39:11.814Z,10.60
2023-04-07T03:41:39.102Z,10.60
2023-04-07T03:44:07.241Z,10.60
2023-04-07T03:46:37.359Z,10.60
2023-04-07T03:49:04.717Z,10.60
2023-04-07T03:51:34.268Z,10.60
2023-04-07T03:54:04.138Z,10.50
2023-04-07T03:56:36.121Z,10.50
2023-04-07T03:59:03.708Z,10.50
2023-04-07T04:01:36.452Z,10.50
2023-04-07T04:04:12.640Z,10.50
2023-04-07T04:06:40.902Z,10.50
2023-04-07T04:09:19.324Z,10.50
2023-04-07T04:11:48.974Z,10.40
2023-04-07T04:14:17.459Z,10.40
2023-04-07T04:16:51.370Z,10.40
2023-04-07T04:19:45.145Z,10.40
2023-04-07T04:22:20.823Z,10.40
2023-04-07T04:24:57.853Z,10.40
2023-04-07T04:27:27.665Z,10.40
2023-04-07T04:30:03.789Z,10.40
2023-04-07T04:32:39.766Z,10.40
2023-04-07T04:35:08.737Z,10.40
2023-04-07T04:37:44.432Z,10.40
2023-04-07T04:40:13.259Z,10.40
2023-04-07T04:42:41.736Z,10.40
2023-04-07T04:45:11.456Z,10.40
2023-04-07T04:47:44.159Z,10.40
2023-04-07T04:50:12.329Z,10.40
2023-04-07T04:52:41.479Z,10.40
2023-04-07T04:55:16.260Z,10.40
2023-04-07T04:57:44.617Z,10.40
2023-04-07T05:00:15.202Z,10.40
2023-04-07T05:02:45.166Z,10.40
2023-04-07T05:05:12.732Z,10.30
2023-04-07T05:07:40.699Z,10.40
2023-04-07T05:10:11.183Z,10.40
2023-04-07T05:12:45.673Z,10.30
2023-04-07T05:15:13.013Z,10.40
2023-04-07T05:17:42.004Z,10.40
2023-04-07T05:20:13.139Z,10.40
2023-04-07T05:22:42.073Z,10.40
2023-04-07T05:25:13.253Z,10.30
2023-04-07T05:27:43.265Z,10.40
2023-04-07T05:30:15.492Z,10.30
2023-04-07T05:32:42.887Z,10.30
2023-04-07T05:35:19.456Z,10.30
2023-04-07T05:37:52.252Z,10.30
2023-04-07T05:40:19.558Z,10.30
2023-04-07T05:42:47.680Z,10.30
2023-04-07T05:45:15.156Z,10.30
2023-04-07T05:47:50.210Z,10.30
2023-04-07T05:50:23.066Z,10.30
2023-04-07T05:52:51.143Z,10.40
2023-04-07T05:55:27.941Z,10.40
2023-04-07T05:57:55.768Z,10.40
2023-04-07T06:00:25.978Z,10.40
2023-04-07T06:03:03.758Z,10.40
2023-04-07T06:05:37.518Z,10.40
2023-04-07T06:08:04.962Z,10.40
2023-04-07T06:10:32.219Z,10.40
2023-04-07T06:12:59.595Z,10.50
2023-04-07T06:15:27.624Z,10.50
2023-04-07T06:17:54.931Z,10.50
2023-04-07T06:20:23.222Z,10.50
2023-04-07T06:22:51.822Z,10.60
2023-04-07T06:25:19.171Z,10.60
2023-04-07T06:27:46.547Z,10.60
2023-04-07T06:30:14.282Z,10.60
2023-04-07T06:32:41.656Z,10.60
2023-04-07T06:35:09.319Z,10.60
2023-04-07T06:37:36.682Z,10.70
2023-04-07T06:40:04.246Z,10.70
2023-04-07T06:42:31.510Z,10.80
2023-04-07T06:45:07.921Z,10.80
2023-04-07T06:47:36.086Z,10.90
2023-04-07T06:50:03.441Z,10.90
2023-04-07T06:52:30.713Z,10.90
2023-04-07T06:54:57.856Z,11.00
2023-04-07T06:57:25.706Z,11.10
2023-04-07T06:59:52.932Z,11.10
2023-04-07T07:02:20.570Z,11.20
2023-04-07T07:04:47.974Z,11.30
2023-04-07T07:07:15.585Z,11.40
2023-04-07T07:09:42.866Z,11.50
2023-04-07T07:12:13.054Z,11.60
2023-04-07T07:14:40.452Z,11.70
2023-04-07T07:17:08.372Z,11.70
2023-04-07T07:19:35.767Z,11.80
2023-04-07T07:22:04.350Z,11.90
2023-04-07T07:24:34.154Z,12.00
2023-04-07T07:27:02.705Z,12.00
2023-04-07T07:29:30.262Z,12.10
2023-04-07T07:31:57.481Z,12.10
2023-04-07T07:34:24.760Z,12.20
2023-04-07T07:36:52.022Z,12.20
2023-04-07T07:39:19.610Z,12.30
2023-04-07T07:41:47.056Z,12.30
2023-04-07T07:44:14.321Z,12.30
2023-04-07T07:46:41.691Z,12.40
2023-04-07T07:49:09.091Z,12.40
2023-04-07T07:51:36.666Z,12.40
2023-04-07T07:54:04.172Z,12.50
2023-04-07T07:56:31.464Z,12.50
2023-04-07T07:58:59.284Z,12.50
2023-04-07T08:01:26.634Z,12.50
2023-04-07T08:03:54.258Z,12.50
2023-04-07T08:06:22.235Z,12.60
2023-04-07T08:08:50.619Z,12.50
2023-04-07T08:11:17.906Z,12.60
2023-04-07T08:13:48.163Z,12.60
2023-04-07T08:16:16.136Z,12.60
2023-04-07T08:18:43.517Z,12.60
2023-04-07T08:21:11.161Z,12.70
2023-04-07T08:23:38.380Z,12.70
2023-04-07T08:26:05.936Z,12.70
2023-04-07T08:28:33.358Z,12.70
2023-04-07T08:31:00.695Z,12.70
2023-04-07T08:33:27.855Z,12.80
2023-04-07T08:35:55.066Z,12.80
2023-04-07T08:38:22.454Z,12.80
2023-04-07T08:40:58.603Z,12.80
2023-04-07T08:43:28.831Z,12.80
2023-04-07T08:45:57.867Z,12.80
2023-04-07T08:48:30.530Z,12.90
2023-04-07T08:50:57.699Z,12.90
2023-04-07T08:53:29.947Z,13.00
2023-04-07T08:55:57.932Z,13.00
2023-04-07T08:58:26.065Z,13.10
2023-04-07T09:00:53.534Z,13.10
2023-04-07T09:03:22.970Z,13.20
2023-04-07T09:05:51.565Z,13.20
2023-04-07T09:08:18.880Z,13.20
2023-04-07T09:10:46.878Z,13.30
2023-04-07T09:13:14.141Z,13.30
2023-04-07T09:15:41.691Z,13.40
2023-04-07T09:18:09.105Z,13.50
2023-04-07T09:20:56.962Z,13.60
2023-04-07T09:23:35.397Z,13.60
2023-04-07T09:26:27.435Z,13.70
2023-04-07T09:28:59.660Z,13.90
2023-04-07T09:31:57.937Z,14.00
2023-04-07T09:34:30.618Z,14.10
2023-04-07T09:36:57.967Z,14.20
2023-04-07T09:39:26.023Z,14.30
2023-04-07T09:41:53.567Z,14.40
2023-04-07T09:44:25.124Z,14.50
2023-04-07T09:46:59.369Z,14.60
2023-04-07T09:49:26.901Z,14.70
2023-04-07T09:51:58.239Z,14.70
2023-04-07T09:54:36.169Z,14.80
2023-04-07T09:57:05.459Z,14.90
2023-04-07T09:59:34.544Z,15.10
2023-04-07T10:02:06.260Z,15.20
2023-04-07T10:04:35.144Z,15.30
2023-04-07T10:07:03.829Z,15.40
2023-04-07T10:09:31.686Z,15.60
2023-04-07T10:12:00.273Z,15.70
2023-04-07T10:14:40.311Z,15.90
2023-04-07T10:17:08.812Z,16.10
2023-04-07T10:19:36.702Z,16.20
2023-04-07T10:22:06.885Z,16.40
2023-04-07T10:25:04.955Z,16.40
2023-04-07T10:27:55.287Z,16.50
2023-04-07T10:30:31.454Z,16.50
2023-04-07T10:32:59.266Z,16.50
2023-04-07T10:35:27.252Z,16.50
2023-04-07T10:38:13.995Z,16.50
2023-04-07T10:40:43.295Z,16.60
2023-04-07T10:43:15.190Z,16.60
2023-04-07T10:45:55.542Z,16.70
2023-04-07T10:48:23.228Z,16.80
2023-04-07T10:51:15.568Z,16.90
2023-04-07T10:54:23.024Z,17.10
2023-04-07T10:57:11.226Z,17.20
2023-04-07T10:59:40.709Z,17.30
2023-04-07T11:02:17.754Z,17.40
2023-04-07T11:04:47.093Z,17.40
2023-04-07T11:07:16.598Z,17.50
2023-04-07T11:09:44.327Z,17.50
2023-04-07T11:12:31.278Z,17.50
2023-04-07T11:14:59.984Z,17.50
2023-04-07T11:17:28.398Z,17.60
2023-04-07T11:19:56.419Z,17.70
2023-04-07T11:22:29.971Z,17.70
2023-04-07T11:24:57.976Z,17.70
2023-04-07T11:27:25.802Z,17.80
2023-04-07T11:29:53.478Z,17.80
2023-04-07T11:32:29.881Z,17.80
2023-04-07T11:34:58.069Z,17.80
2023-04-07T11:37:27.516Z,17.70
2023-04-07T11:39:59.103Z,17.70
2023-04-07T11:42:40.171Z,17.60
2023-04-07T11:45:17.416Z,17.50
2023-04-07T11:47:44.957Z,17.40
2023-04-07T11:50:13.838Z,17.40
2023-04-07T11:52:46.095Z,17.30
2023-04-07T11:55:26.760Z,17.30
2023-04-07T11:57:54.183Z,17.20
2023-04-07T12:00:21.785Z,17.20
2023-04-07T12:02:49.147Z,17.20
2023-04-07T12:05:16.709Z,17.20
2023-04-07T12:07:54.256Z,17.20
2023-04-07T12:10:28.162Z,17.20
2023-04-07T12:12:56.980Z,17.20
2023-04-07T12:15:26.300Z,17.20
2023-04-07T12:17:53.949Z,17.20
2023-04-07T12:20:21.325Z,17.20
2023-04-07T12:22:48.574Z,17.20
2023-04-07T12:25:16.081Z,17.30
2023-04-07T12:27:44.062Z,17.30
2023-04-07T12:30:13.262Z,17.40
2023-04-07T12:32:41.317Z,17.40
2023-04-07T12:35:08.801Z,17.50
2023-04-07T12:37:36.130Z,17.50
2023-04-07T12:40:03.673Z,17.50
2023-04-07T12:42:30.962Z,17.60
2023-04-07T12:44:58.281Z,17.60
2023-04-07T12:47:25.634Z,17.60
2023-04-07T12:49:52.845Z,17.60
2023-04-07T12:52:20.015Z,17.60
2023-04-07T12:54:47.351Z,17.60
2023-04-07T12:57:14.726Z,17.60
2023-04-07T12:59:42.066Z,17.50
2023-04-07T13:02:10.256Z,17.50
2023-04-07T13:04:40.756Z,17.40
2023-04-07T13:07:09.893Z,17.40
2023-04-07T13:09:37.234Z,17.40
2023-04-07T13:12:04.637Z,17.30
2023-04-07T13:14:32.057Z,17.30
2023-04-07T13:16:59.387Z,17.20
2023-04-07T13:19:26.733Z,17.20
2023-04-07T13:21:54.071Z,17.20
2023-04-07T13:24:22.243Z,17.20
2023-04-07T13:26:49.818Z,17.20
2023-04-07T13:29:17.628Z,17.30
2023-04-07T13:31:48.609Z,17.30
2023-04-07T13:34:16.357Z,17.30
2023-04-07T13:36:43.748Z,17.30
2023-04-07T13:39:11.334Z,17.30
2023-04-07T13:41:38.738Z,17.30
2023-04-07T13:44:06.262Z,17.20
2023-04-07T13:46:34.028Z,17.20
2023-04-07T13:49:04.834Z,17.30
2023-04-07T13:51:32.626Z,17.30
2023-04-07T13:54:00.479Z,17.30
2023-04-07T13:56:27.915Z,17.30
2023-04-07T13:58:56.499Z,17.20
2023-04-07T14:01:24.335Z,17.20
2023-04-07T14:03:52.939Z,17.20
2023-04-07T14:06:23.820Z,17.20
2023-04-07T14:08:51.564Z,17.20
2023-04-07T14:11:26.327Z,17.20
2023-04-07T14:13:58.821Z,17.20
2023-04-07T14:16:26.609Z,17.20
2023-04-07T14:18:54.088Z,17.20
2023-04-07T14:21:21.399Z,17.20
2023-04-07T14:23:48.755Z,17.20
2023-04-07T14:26:16.180Z,17.20
2023-04-07T14:28:43.465Z,17.10
2023-04-07T14:31:15.862Z,17.20
2023-04-07T14:33:43.559Z,17.30
2023-04-07T14:36:10.858Z,17.40
2023-04-07T14:38:38.133Z,17.60
2023-04-07T14:41:10.017Z,17.80
2023-04-07T14:43:39.922Z,18.10
2023-04-07T14:46:07.291Z,18.30
2023-04-07T14:48:34.651Z,18.60
2023-04-07T14:51:08.890Z,18.90
2023-04-07T14:53:36.904Z,19.10
2023-04-07T14:56:07.843Z,19.20
2023-04-07T14:58:37.658Z,19.40
2023-04-07T15:01:08.326Z,19.40
2023-04-07T15:03:35.761Z,19.40
2023-04-07T15:06:08.046Z,19.40
2023-04-07T15:08:35.362Z,19.30
2023-04-07T15:11:06.674Z,19.20
2023-04-07T15:13:34.098Z,19.10
2023-04-07T15:16:12.421Z,18.90
2023-04-07T15:18:42.209Z,18.80
2023-04-07T15:21:09.930Z,18.70
2023-04-07T15:23:38.200Z,18.50
2023-04-07T15:26:06.496Z,18.30
2023-04-07T15:28:33.825Z,18.20
2023-04-07T15:31:01.671Z,18.00
2023-04-07T15:33:29.073Z,18.00
2023-04-07T15:35:57.080Z,17.90
2023-04-07T15:38:24.380Z,17.70
2023-04-07T15:40:51.847Z,17.70
2023-04-07T15:43:19.077Z,17.60
2023-04-07T15:45:46.483Z,17.50
2023-04-07T15:48:14.255Z,17.50
2023-04-07T15:50:41.646Z,17.40
2023-04-07T15:53:09.320Z,17.40
2023-04-07T15:55:37.152Z,17.30
2023-04-07T15:58:04.792Z,17.20
2023-04-07T16:00:36.007Z,17.20
2023-04-07T16:03:03.685Z,17.30
2023-04-07T16:05:31.146Z,17.30
2023-04-07T16:07:58.665Z,17.30
2023-04-07T16:10:26.036Z,17.30
2023-04-07T16:12:53.244Z,17.40
2023-04-07T16:15:29.008Z,17.30
2023-04-07T16:18:08.805Z,17.30
2023-04-07T16:20:36.266Z,17.30
2023-04-07T16:23:03.881Z,17.40
2023-04-07T16:25:31.422Z,17.40
2023-04-07T16:27:58.714Z,17.50
2023-04-07T16:30:26.085Z,17.50
2023-04-07T16:32:56.309Z,17.60
2023-04-07T16:35:23.769Z,17.60
2023-04-07T16:37:51.366Z,17.60
2023-04-07T16:40:18.645Z,17.60
2023-04-07T16:42:46.669Z,17.60
2023-04-07T16:45:14.046Z,17.50
2023-04-07T16:47:44.497Z,17.50
2023-04-07T16:50:12.064Z,17.40
2023-04-07T16:52:40.511Z,17.30
2023-04-07T16:55:08.135Z,17.20
2023-04-07T16:57:35.636Z,17.10
2023-04-07T17:00:02.961Z,17.00
2023-04-07T17:02:30.477Z,16.90
2023-04-07T17:04:57.956Z,16.80
2023-04-07T17:07:25.331Z,16.60
2023-04-07T17:09:52.644Z,16.60
2023-04-07T17:12:19.943Z,16.40
2023-04-07T17:14:47.155Z,16.30
2023-04-07T17:17:14.440Z,16.20
2023-04-07T17:19:41.833Z,16.10
2023-04-07T17:22:09.379Z,16.00
2023-04-07T17:24:36.659Z,15.90
2023-04-07T17:27:04.089Z,15.80
2023-04-07T17:29:31.553Z,15.70
2023-04-07T17:31:58.924Z,15.60
2023-04-07T17:34:26.287Z,15.50
2023-04-07T17:36:54.671Z,15.40
2023-04-07T17:39:22.772Z,15.30
2023-04-07T17:41:49.974Z,15.20
2023-04-07T17:44:17.772Z,15.10
2023-04-07T17:46:45.722Z,15.10
2023-04-07T17:49:13.123Z,14.90
2023-04-07T17:51:42.749Z,14.90
2023-04-07T17:54:10.263Z,14.80
2023-04-07T17:56:39.004Z,14.70
2023-04-07T17:59:06.576Z,14.60
2023-04-07T18:01:34.512Z,14.50
2023-04-07T18:04:03.258Z,14.40
2023-04-07T18:06:33.209Z,14.30
2023-04-07T18:09:00.906Z,14.10
2023-04-07T18:11:28.551Z,14.00
2023-04-07T18:13:56.695Z,13.90
2023-04-07T18:16:24.061Z,13.80
2023-04-07T18:18:51.468Z,13.70
2023-04-07T18:21:18.719Z,13.60
2023-04-07T18:23:46.002Z,13.50
2023-04-07T18:26:13.270Z,13.40
2023-04-07T18:28:40.615Z,13.30
2023-04-07T18:31:08.440Z,13.20
2023-04-07T18:33:36.403Z,13.00
2023-04-07T18:36:08.953Z,12.90
2023-04-07T18:38:38.210Z,12.90
2023-04-07T18:41:07.694Z,12.70
2023-04-07T18:43:36.491Z,12.70
2023-04-07T18:46:03.795Z,12.50
2023-04-07T18:48:31.191Z,12.50
2023-04-07T18:50:58.572Z,12.40
2023-04-07T18:53:27.057Z,12.30
2023-04-07T18:55:56.087Z,12.20
2023-04-07T18:58:23.446Z,12.10
2023-04-07T19:00:50.853Z,12.10
2023-04-07T19:03:18.363Z,12.00
2023-04-07T19:05:48.198Z,11.90
2023-04-07T19:08:16.167Z,11.80
2023-04-07T19:10:43.897Z,11.70
2023-04-07T19:13:11.287Z,11.70
2023-04-07T19:15:39.521Z,11.60
2023-04-07T19:18:10.076Z,11.50
2023-04-07T19:20:37.300Z,11.50
2023-04-07T19:23:04.558Z,11.40
2023-04-07T19:25:32.890Z,11.30
2023-04-07T19:28:00.288Z,11.30
2023-04-07T19:30:28.028Z,11.20
2023-04-07T19:32:55.439Z,11.20
2023-04-07T19:35:22.909Z,11.10
2023-04-07T19:37:50.667Z,11.10
2023-04-07T19:40:17.999Z,11.00
2023-04-07T19:42:45.309Z,11.00
2023-04-07T19:45:12.987Z,11.00
2023-04-07T19:47:40.357Z,10.90
2023-04-07T19:50:09.585Z,10.90
2023-04-07T19:52:38.955Z,10.80
2023-04-07T19:55:07.921Z,10.70
2023-04-07T19:57:36.195Z,10.70
2023-04-07T20:00:04.631Z,10.60
2023-04-07T20:02:32.102Z,10.60
2023-04-07T20:04:59.486Z,10.60
2023-04-07T20:07:27.329Z,10.50
2023-04-07T20:09:55.168Z,10.50
2023-04-07T20:12:22.454Z,10.40
2023-04-07T20:14:50.970Z,10.40
2023-04-07T20:17:18.325Z,10.30
2023-04-07T20:19:45.566Z,10.30
2023-04-07T20:22:12.952Z,10.30
2023-04-07T20:24:40.243Z,10.20
2023-04-07T20:27:07.602Z,10.20
2023-04-07T20:29:34.883Z,10.10
2023-04-07T20:32:02.213Z,10.10
2023-04-07T20:34:29.466Z,10.00
2023-04-07T20:36:56.786Z,10.00
2023-04-07T20:39:24.022Z,10.00
2023-04-07T20:41:51.361Z,9.90
2023-04-07T20:44:18.687Z,9.90
2023-04-07T20:46:46.982Z,9.90
2023-04-07T20:49:14.403Z,9.80
2023-04-07T20:51:41.770Z,9.80
2023-04-07T20:54:09.157Z,9.80
2023-04-07T20:56:36.964Z,9.70
2023-04-07T20:59:04.226Z,9.70
2023-04-07T21:01:31.549Z,9.70
2023-04-07T21:04:01.025Z,9.60
2023-04-07T21:06:28.409Z,9.60
2023-04-07T21:08:55.865Z,9.60
2023-04-07T21:11:23.150Z,9.50
2023-04-07T21:13:50.550Z,9.50
2023-04-07T21:16:18.008Z,9.50
2023-04-07T21:18:45.373Z,9.50
2023-04-07T21:21:12.967Z,9.40
2023-04-07T21:23:41.050Z,9.40
2023-04-07T21:26:08.474Z,9.40
2023-04-07T21:28:36.010Z,9.40
2023-04-07T21:31:04.600Z,9.30
2023-04-07T21:33:31.913Z,9.30
2023-04-07T21:36:00.763Z,9.30
2023-04-07T21:38:28.401Z,9.30
2023-04-07T21:40:57.663Z,9.30
2023-04-07T21:43:25.095Z,9.30
2023-04-07T21:45:52.478Z,9.30
2023-04-07T21:48:23.540Z,9.30
2023-04-07T21:50:53.697Z,9.30
2023-04-07T21:53:21.160Z,9.20
2023-04-07T21:55:48.517Z,9.20
2023-04-07T21:58:15.995Z,9.20
2023-04-07T22:00:43.264Z,9.20
2023-04-07T22:03:11.133Z,9.20
2023-04-07T22:05:39.283Z,9.20
2023-04-07T22:08:06.721Z,9.20
2023-04-07T22:10:34.049Z,9.10
2023-04-07T22:13:01.409Z,9.20
2023-04-07T22:15:28.764Z,9.20
2023-04-07T22:17:57.898Z,9.10
2023-04-07T22:20:26.044Z,9.20
2023-04-07T22:22:57.613Z,9.20
2023-04-07T22:25:25.600Z,9.20
2023-04-07T22:27:53.046Z,9.10
2023-04-07T22:30:20.880Z,9.20
2023-04-07T22:32:48.317Z,9.20
2023-04-07T22:35:15.865Z,9.10
2023-04-07T22:37:43.282Z,9.10
2023-04-07T22:40:10.900Z,9.10
2023-04-07T22:42:39.719Z,9.10
2023-04-07T22:45:07.779Z,9.00
2023-04-07T22:47:35.129Z,9.00
2023-04-07T22:50:02.789Z,9.00
2023-04-07T22:52:30.029Z,9.00
2023-04-07T22:54:58.042Z,9.00
2023-04-07T22:57:26.524Z,9.00
2023-04-07T22:59:53.954Z,9.00
2023-04-07T23:02:21.530Z,8.90
2023-04-07T23:04:49.809Z,8.90
2023-04-07T23:07:17.254Z,8.90
2023-04-07T23:09:44.438Z,8.80
2023-04-07T23:12:11.848Z,8.80
2023-04-07T23:14:39.089Z,8.80
2023-04-07T23:17:06.446Z,8.80
2023-04-07T23:19:33.683Z,8.80
2023-04-07T23:22:00.914Z,8.80
2023-04-07T23:24:28.212Z,8.70
2023-04-07T23:26:56.668Z,8.70
2023-04-07T23:29:24.123Z,8.70
2023-04-07T23:31:52.750Z,8.70
2023-04-07T23:34:20.144Z,8.70
2023-04-07T23:36:47.571Z,8.60
2023-04-07T23:39:14.850Z,8.60
2023-04-07T23:41:42.065Z,8.60
2023-04-07T23:44:09.377Z,8.60
2023-04-07T23:46:36.659Z,8.60
2023-04-07T23:49:03.933Z,8.50
2023-04-07T23:51:31.840Z,8.50
2023-04-07T23:53:59.128Z,8.50
2023-04-07T23:56:26.397Z,8.50
2023-04-07T23:58:53.615Z,8.50
